sensor_id;sensor_type;location;lat;lon;timestamp;temperature;humidity
12957;DHT22;6543;48.836;10.092;2024-02-26T00:02:22;5.20;99.90
12957;DHT22;6543;48.836;10.092;2024-02-26T00:04:48;5.20;99.90
12957;DHT22;6543;48.836;10.092;2024-02-26T00:07:15;5.20;99.90
12957;DHT22;6543;48.836;10.092;2024-02-26T00:09:42;5.20;99.90
12957;DHT22;6543;48.836;10.092;2024-02-26T00:12:09;5.20;99.90
12957;DHT22;6543;48.836;10.092;2024-02-26T00:14:36;5.30;99.90
12957;DHT22;6543;48.836;10.092;2024-02-26T00:17:02;5.40;99.90
12957;DHT22;6543;48.836;10.092;2024-02-26T00:19:30;5.40;99.90
12957;DHT22;6543;48.836;10.092;2024-02-26T00:21:57;5.40;99.90
12957;DHT22;6543;48.836;10.092;2024-02-26T00:24:25;5.40;99.90
12957;DHT22;6543;48.836;10.092;2024-02-26T00:26:52;5.50;99.90
12957;DHT22;6543;48.836;10.092;2024-02-26T00:29:20;5.50;99.90
12957;DHT22;6543;48.836;10.092;2024-02-26T00:31:47;5.50;99.90
12957;DHT22;6543;48.836;10.092;2024-02-26T00:34:14;5.50;99.90
12957;DHT22;6543;48.836;10.092;2024-02-26T00:36:42;5.50;99.90
12957;DHT22;6543;48.836;10.092;2024-02-26T00:39:09;5.50;99.90
12957;DHT22;6543;48.836;10.092;2024-02-26T00:41:38;5.50;99.90
12957;DHT22;6543;48.836;10.092;2024-02-26T00:44:06;5.50;99.90
12957;DHT22;6543;48.836;10.092;2024-02-26T00:46:33;5.40;99.90
12957;DHT22;6543;48.836;10.092;2024-02-26T00:48:59;5.50;99.90
12957;DHT22;6543;48.836;10.092;2024-02-26T00:51:27;5.40;99.90
12957;DHT22;6543;48.836;10.092;2024-02-26T00:53:55;5.50;99.90
12957;DHT22;6543;48.836;10.092;2024-02-26T00:56:22;5.50;99.90
12957;DHT22;6543;48.836;10.092;2024-02-26T00:58:48;5.60;99.90
12957;DHT22;6543;48.836;10.092;2024-02-26T01:01:14;5.60;99.90
12957;DHT22;6543;48.836;10.092;2024-02-26T01:03:41;5.50;99.90
12957;DHT22;6543;48.836;10.092;2024-02-26T01:06:08;5.60;99.90
12957;DHT22;6543;48.836;10.092;2024-02-26T01:08:35;5.60;99.90
12957;DHT22;6543;48.836;10.092;2024-02-26T01:11:04;5.60;99.90
12957;DHT22;6543;48.836;10.092;2024-02-26T01:13:31;5.50;99.90
12957;DHT22;6543;48.836;10.092;2024-02-26T01:15:58;5.50;99.90
12957;DHT22;6543;48.836;10.092;2024-02-26T01:18:26;5.50;99.90
12957;DHT22;6543;48.836;10.092;2024-02-26T01:20:53;5.40;99.90
12957;DHT22;6543;48.836;10.092;2024-02-26T01:23:19;5.40;99.90
12957;DHT22;6543;48.836;10.092;2024-02-26T01:25:46;5.30;99.90
12957;DHT22;6543;48.836;10.092;2024-02-26T01:28:16;5.30;99.90
12957;DHT22;6543;48.836;10.092;2024-02-26T01:30:43;5.30;99.90
12957;DHT22;6543;48.836;10.092;2024-02-26T01:33:10;5.30;99.90
12957;DHT22;6543;48.836;10.092;2024-02-26T01:35:37;5.40;99.90
12957;DHT22;6543;48.836;10.092;2024-02-26T01:38:04;5.20;99.90
12957;DHT22;6543;48.836;10.092;2024-02-26T01:40:31;5.30;99.90
12957;DHT22;6543;48.836;10.092;2024-02-26T01:42:59;5.30;99.90
12957;DHT22;6543;48.836;10.092;2024-02-26T01:45:27;6.20;99.90
12957;DHT22;6543;48.836;10.092;2024-02-26T01:47:54;5.40;99.90
12957;DHT22;6543;48.836;10.092;2024-02-26T01:50:22;5.90;99.90
12957;DHT22;6543;48.836;10.092;2024-02-26T01:52:50;5.40;99.90
12957;DHT22;6543;48.836;10.092;2024-02-26T01:55:18;5.40;99.90
12957;DHT22;6543;48.836;10.092;2024-02-26T01:57:45;5.40;99.90
12957;DHT22;6543;48.836;10.092;2024-02-26T02:00:14;5.40;99.90
12957;DHT22;6543;48.836;10.092;2024-02-26T02:02:43;5.40;99.90
12957;DHT22;6543;48.836;10.092;2024-02-26T02:05:12;5.40;99.90
12957;DHT22;6543;48.836;10.092;2024-02-26T02:07:41;5.50;99.90
12957;DHT22;6543;48.836;10.092;2024-02-26T02:10:08;5.50;99.90
12957;DHT22;6543;48.836;10.092;2024-02-26T02:12:35;5.50;99.90
12957;DHT22;6543;48.836;10.092;2024-02-26T02:15:06;5.40;99.90
12957;DHT22;6543;48.836;10.092;2024-02-26T02:17:33;5.40;99.90
12957;DHT22;6543;48.836;10.092;2024-02-26T02:20:01;5.40;99.90
12957;DHT22;6543;48.836;10.092;2024-02-26T02:22:30;5.30;99.90
12957;DHT22;6543;48.836;10.092;2024-02-26T02:24:57;5.30;99.90
12957;DHT22;6543;48.836;10.092;2024-02-26T02:27:25;5.40;99.90
12957;DHT22;6543;48.836;10.092;2024-02-26T02:29:53;5.30;99.90
12957;DHT22;6543;48.836;10.092;2024-02-26T02:32:20;6.20;99.90
12957;DHT22;6543;48.836;10.092;2024-02-26T02:34:47;5.50;99.90
12957;DHT22;6543;48.836;10.092;2024-02-26T02:37:14;5.30;99.90
12957;DHT22;6543;48.836;10.092;2024-02-26T02:39:43;5.30;99.90
12957;DHT22;6543;48.836;10.092;2024-02-26T02:42:10;5.30;99.90
12957;DHT22;6543;48.836;10.092;2024-02-26T02:44:37;5.30;99.90
12957;DHT22;6543;48.836;10.092;2024-02-26T02:47:04;5.30;99.90
12957;DHT22;6543;48.836;10.092;2024-02-26T02:49:31;5.30;99.90
12957;DHT22;6543;48.836;10.092;2024-02-26T02:51:58;5.30;99.90
12957;DHT22;6543;48.836;10.092;2024-02-26T02:54:24;5.40;99.90
12957;DHT22;6543;48.836;10.092;2024-02-26T02:56:52;5.40;99.90
12957;DHT22;6543;48.836;10.092;2024-02-26T02:59:19;5.40;99.90
12957;DHT22;6543;48.836;10.092;2024-02-26T03:01:46;5.40;99.90
12957;DHT22;6543;48.836;10.092;2024-02-26T03:04:13;5.30;99.90
12957;DHT22;6543;48.836;10.092;2024-02-26T03:06:39;5.30;99.90
12957;DHT22;6543;48.836;10.092;2024-02-26T03:09:06;5.30;99.90
12957;DHT22;6543;48.836;10.092;2024-02-26T03:11:33;5.40;99.90
12957;DHT22;6543;48.836;10.092;2024-02-26T03:14:01;5.30;99.90
12957;DHT22;6543;48.836;10.092;2024-02-26T03:16:28;5.40;99.90
12957;DHT22;6543;48.836;10.092;2024-02-26T03:18:55;5.40;99.90
12957;DHT22;6543;48.836;10.092;2024-02-26T03:21:22;5.40;99.90
12957;DHT22;6543;48.836;10.092;2024-02-26T03:23:49;5.40;99.90
12957;DHT22;6543;48.836;10.092;2024-02-26T03:26:15;5.40;99.90
12957;DHT22;6543;48.836;10.092;2024-02-26T03:28:42;5.40;99.90
12957;DHT22;6543;48.836;10.092;2024-02-26T03:31:10;5.50;99.90
12957;DHT22;6543;48.836;10.092;2024-02-26T03:33:37;5.50;99.90
12957;DHT22;6543;48.836;10.092;2024-02-26T03:36:05;5.50;99.90
12957;DHT22;6543;48.836;10.092;2024-02-26T03:38:33;5.50;99.90
12957;DHT22;6543;48.836;10.092;2024-02-26T03:40:59;5.60;99.90
12957;DHT22;6543;48.836;10.092;2024-02-26T03:43:26;5.60;99.90
12957;DHT22;6543;48.836;10.092;2024-02-26T03:45:53;5.60;99.90
12957;DHT22;6543;48.836;10.092;2024-02-26T03:48:21;5.60;99.90
12957;DHT22;6543;48.836;10.092;2024-02-26T03:50:48;5.50;99.90
12957;DHT22;6543;48.836;10.092;2024-02-26T03:53:15;5.40;99.90
12957;DHT22;6543;48.836;10.092;2024-02-26T03:55:41;5.80;99.90
12957;DHT22;6543;48.836;10.092;2024-02-26T03:58:08;5.30;99.90
12957;DHT22;6543;48.836;10.092;2024-02-26T04:00:35;5.20;99.90
12957;DHT22;6543;48.836;10.092;2024-02-26T04:03:02;5.20;99.90
12957;DHT22;6543;48.836;10.092;2024-02-26T04:05:30;5.20;99.90
12957;DHT22;6543;48.836;10.092;2024-02-26T04:07:57;5.20;99.90
12957;DHT22;6543;48.836;10.092;2024-02-26T04:10:24;5.20;99.90
12957;DHT22;6543;48.836;10.092;2024-02-26T04:12:50;5.20;99.90
12957;DHT22;6543;48.836;10.092;2024-02-26T04:15:17;5.20;99.90
12957;DHT22;6543;48.836;10.092;2024-02-26T04:17:44;5.30;99.90
12957;DHT22;6543;48.836;10.092;2024-02-26T04:20:14;5.40;99.90
12957;DHT22;6543;48.836;10.092;2024-02-26T04:22:44;5.40;99.90
12957;DHT22;6543;48.836;10.092;2024-02-26T04:25:11;5.30;99.90
12957;DHT22;6543;48.836;10.092;2024-02-26T04:27:38;5.30;99.90
12957;DHT22;6543;48.836;10.092;2024-02-26T04:30:05;5.30;99.90
12957;DHT22;6543;48.836;10.092;2024-02-26T04:32:32;5.20;99.90
12957;DHT22;6543;48.836;10.092;2024-02-26T04:34:59;5.30;99.90
12957;DHT22;6543;48.836;10.092;2024-02-26T04:37:26;5.30;99.90
12957;DHT22;6543;48.836;10.092;2024-02-26T04:39:58;5.30;99.90
12957;DHT22;6543;48.836;10.092;2024-02-26T04:42:25;5.70;99.90
12957;DHT22;6543;48.836;10.092;2024-02-26T04:44:51;5.30;99.90
12957;DHT22;6543;48.836;10.092;2024-02-26T04:47:18;5.20;99.90
12957;DHT22;6543;48.836;10.092;2024-02-26T04:49:45;5.20;99.90
12957;DHT22;6543;48.836;10.092;2024-02-26T04:52:12;5.20;99.90
12957;DHT22;6543;48.836;10.092;2024-02-26T04:54:38;5.20;99.90
12957;DHT22;6543;48.836;10.092;2024-02-26T04:57:07;5.30;99.90
12957;DHT22;6543;48.836;10.092;2024-02-26T04:59:33;5.30;99.90
12957;DHT22;6543;48.836;10.092;2024-02-26T05:02:00;5.30;99.90
12957;DHT22;6543;48.836;10.092;2024-02-26T05:04:27;5.30;99.90
12957;DHT22;6543;48.836;10.092;2024-02-26T05:06:54;5.30;99.90
12957;DHT22;6543;48.836;10.092;2024-02-26T05:09:21;5.30;99.90
12957;DHT22;6543;48.836;10.092;2024-02-26T05:11:47;5.80;99.90
12957;DHT22;6543;48.836;10.092;2024-02-26T05:14:15;5.40;99.90
12957;DHT22;6543;48.836;10.092;2024-02-26T05:16:42;5.50;99.90
12957;DHT22;6543;48.836;10.092;2024-02-26T05:19:09;5.40;99.90
12957;DHT22;6543;48.836;10.092;2024-02-26T05:21:36;5.40;99.90
12957;DHT22;6543;48.836;10.092;2024-02-26T05:24:03;5.50;99.90
12957;DHT22;6543;48.836;10.092;2024-02-26T05:26:30;5.50;99.90
12957;DHT22;6543;48.836;10.092;2024-02-26T05:28:56;5.50;99.90
12957;DHT22;6543;48.836;10.092;2024-02-26T05:31:26;5.50;99.90
12957;DHT22;6543;48.836;10.092;2024-02-26T05:33:54;6.10;99.90
12957;DHT22;6543;48.836;10.092;2024-02-26T05:36:21;5.40;99.90
12957;DHT22;6543;48.836;10.092;2024-02-26T05:38:48;5.40;99.90
12957;DHT22;6543;48.836;10.092;2024-02-26T05:41:16;5.50;99.90
12957;DHT22;6543;48.836;10.092;2024-02-26T05:43:48;5.50;99.90
12957;DHT22;6543;48.836;10.092;2024-02-26T05:46:16;5.50;99.90
12957;DHT22;6543;48.836;10.092;2024-02-26T05:48:46;5.60;99.90
12957;DHT22;6543;48.836;10.092;2024-02-26T05:51:13;5.60;99.90
12957;DHT22;6543;48.836;10.092;2024-02-26T05:53:40;6.90;99.90
12957;DHT22;6543;48.836;10.092;2024-02-26T05:56:07;5.50;99.90
12957;DHT22;6543;48.836;10.092;2024-02-26T05:58:34;5.40;99.90
12957;DHT22;6543;48.836;10.092;2024-02-26T06:01:01;6.00;99.90
12957;DHT22;6543;48.836;10.092;2024-02-26T06:03:28;5.40;99.90
12957;DHT22;6543;48.836;10.092;2024-02-26T06:05:57;5.30;99.90
12957;DHT22;6543;48.836;10.092;2024-02-26T06:08:23;5.50;99.90
12957;DHT22;6543;48.836;10.092;2024-02-26T06:10:50;5.40;99.90
12957;DHT22;6543;48.836;10.092;2024-02-26T06:13:17;5.40;99.90
12957;DHT22;6543;48.836;10.092;2024-02-26T06:15:44;5.50;99.90
12957;DHT22;6543;48.836;10.092;2024-02-26T06:18:10;5.50;99.90
12957;DHT22;6543;48.836;10.092;2024-02-26T06:20:37;5.50;99.90
12957;DHT22;6543;48.836;10.092;2024-02-26T06:23:05;5.40;99.90
12957;DHT22;6543;48.836;10.092;2024-02-26T06:25:32;5.40;99.90
12957;DHT22;6543;48.836;10.092;2024-02-26T06:27:59;5.50;99.90
12957;DHT22;6543;48.836;10.092;2024-02-26T06:30:26;5.50;99.90
12957;DHT22;6543;48.836;10.092;2024-02-26T06:32:53;6.00;99.90
12957;DHT22;6543;48.836;10.092;2024-02-26T06:35:19;6.90;99.90
12957;DHT22;6543;48.836;10.092;2024-02-26T06:37:46;5.70;99.90
12957;DHT22;6543;48.836;10.092;2024-02-26T06:40:17;5.80;99.90
12957;DHT22;6543;48.836;10.092;2024-02-26T06:42:44;5.80;99.90
12957;DHT22;6543;48.836;10.092;2024-02-26T06:45:10;6.20;99.90
12957;DHT22;6543;48.836;10.092;2024-02-26T06:47:37;5.80;99.90
12957;DHT22;6543;48.836;10.092;2024-02-26T06:50:09;6.00;99.90
12957;DHT22;6543;48.836;10.092;2024-02-26T06:52:36;5.80;99.90
12957;DHT22;6543;48.836;10.092;2024-02-26T06:55:03;5.80;99.90
12957;DHT22;6543;48.836;10.092;2024-02-26T06:57:31;5.80;99.90
12957;DHT22;6543;48.836;10.092;2024-02-26T06:59:58;5.80;99.90
12957;DHT22;6543;48.836;10.092;2024-02-26T07:02:25;5.70;99.90
12957;DHT22;6543;48.836;10.092;2024-02-26T07:04:52;5.60;99.90
12957;DHT22;6543;48.836;10.092;2024-02-26T07:07:21;5.60;99.90
12957;DHT22;6543;48.836;10.092;2024-02-26T07:09:49;5.40;99.90
12957;DHT22;6543;48.836;10.092;2024-02-26T07:12:16;5.40;99.90
12957;DHT22;6543;48.836;10.092;2024-02-26T07:14:44;5.40;99.90
12957;DHT22;6543;48.836;10.092;2024-02-26T07:17:11;5.40;99.90
12957;DHT22;6543;48.836;10.092;2024-02-26T07:19:38;6.60;99.90
12957;DHT22;6543;48.836;10.092;2024-02-26T07:22:05;5.60;99.90
12957;DHT22;6543;48.836;10.092;2024-02-26T07:24:32;5.40;99.90
12957;DHT22;6543;48.836;10.092;2024-02-26T07:26:58;5.70;99.90
12957;DHT22;6543;48.836;10.092;2024-02-26T07:29:26;6.10;99.90
12957;DHT22;6543;48.836;10.092;2024-02-26T07:31:55;6.10;99.90
12957;DHT22;6543;48.836;10.092;2024-02-26T07:34:22;6.70;99.90
12957;DHT22;6543;48.836;10.092;2024-02-26T07:36:53;6.40;99.90
12957;DHT22;6543;48.836;10.092;2024-02-26T07:39:20;6.60;99.90
12957;DHT22;6543;48.836;10.092;2024-02-26T07:41:47;7.20;99.90
12957;DHT22;6543;48.836;10.092;2024-02-26T07:44:17;6.80;99.90
12957;DHT22;6543;48.836;10.092;2024-02-26T07:46:44;7.00;99.90
12957;DHT22;6543;48.836;10.092;2024-02-26T07:49:12;7.60;99.90
12957;DHT22;6543;48.836;10.092;2024-02-26T07:51:39;7.10;99.90
12957;DHT22;6543;48.836;10.092;2024-02-26T07:54:05;7.10;99.90
12957;DHT22;6543;48.836;10.092;2024-02-26T07:56:32;7.10;99.90
12957;DHT22;6543;48.836;10.092;2024-02-26T07:58:59;8.00;99.90
12957;DHT22;6543;48.836;10.092;2024-02-26T08:01:26;7.00;99.90
12957;DHT22;6543;48.836;10.092;2024-02-26T08:03:53;6.90;99.90
12957;DHT22;6543;48.836;10.092;2024-02-26T08:06:23;7.00;99.90
12957;DHT22;6543;48.836;10.092;2024-02-26T08:08:50;7.00;99.90
12957;DHT22;6543;48.836;10.092;2024-02-26T08:11:18;7.00;99.90
12957;DHT22;6543;48.836;10.092;2024-02-26T08:13:45;7.10;99.90
12957;DHT22;6543;48.836;10.092;2024-02-26T08:16:12;7.20;99.90
12957;DHT22;6543;48.836;10.092;2024-02-26T08:18:39;7.20;99.90
12957;DHT22;6543;48.836;10.092;2024-02-26T08:21:06;7.30;99.90
12957;DHT22;6543;48.836;10.092;2024-02-26T08:23:35;7.90;99.90
12957;DHT22;6543;48.836;10.092;2024-02-26T08:26:02;7.30;99.90
12957;DHT22;6543;48.836;10.092;2024-02-26T08:28:32;7.50;99.90
12957;DHT22;6543;48.836;10.092;2024-02-26T08:30:59;7.50;99.90
12957;DHT22;6543;48.836;10.092;2024-02-26T08:33:26;7.40;99.90
12957;DHT22;6543;48.836;10.092;2024-02-26T08:35:53;7.40;99.90
12957;DHT22;6543;48.836;10.092;2024-02-26T08:38:20;7.40;99.90
12957;DHT22;6543;48.836;10.092;2024-02-26T08:40:48;7.40;99.90
12957;DHT22;6543;48.836;10.092;2024-02-26T08:43:15;7.50;99.90
12957;DHT22;6543;48.836;10.092;2024-02-26T08:45:42;7.60;99.90
12957;DHT22;6543;48.836;10.092;2024-02-26T08:48:09;7.60;99.90
12957;DHT22;6543;48.836;10.092;2024-02-26T08:50:35;7.80;99.90
12957;DHT22;6543;48.836;10.092;2024-02-26T08:53:02;7.90;99.90
12957;DHT22;6543;48.836;10.092;2024-02-26T08:55:29;7.90;99.90
12957;DHT22;6543;48.836;10.092;2024-02-26T08:57:57;8.50;99.90
12957;DHT22;6543;48.836;10.092;2024-02-26T09:00:24;9.00;99.90
12957;DHT22;6543;48.836;10.092;2024-02-26T09:02:51;8.30;99.90
12957;DHT22;6543;48.836;10.092;2024-02-26T09:05:18;8.40;99.90
12957;DHT22;6543;48.836;10.092;2024-02-26T09:07:45;8.60;99.90
12957;DHT22;6543;48.836;10.092;2024-02-26T09:10:13;8.70;99.90
12957;DHT22;6543;48.836;10.092;2024-02-26T09:12:39;8.90;99.90
12957;DHT22;6543;48.836;10.092;2024-02-26T09:15:08;9.40;99.90
12957;DHT22;6543;48.836;10.092;2024-02-26T09:17:35;9.20;99.90
12957;DHT22;6543;48.836;10.092;2024-02-26T09:20:02;9.40;99.90
12957;DHT22;6543;48.836;10.092;2024-02-26T09:22:31;9.30;99.90
12957;DHT22;6543;48.836;10.092;2024-02-26T09:25:00;9.40;99.90
12957;DHT22;6543;48.836;10.092;2024-02-26T09:27:27;9.40;99.90
12957;DHT22;6543;48.836;10.092;2024-02-26T09:29:56;7.90;99.90
12957;DHT22;6543;48.836;10.092;2024-02-26T09:32:24;9.40;99.90
12957;DHT22;6543;48.836;10.092;2024-02-26T09:34:51;9.70;99.90
12957;DHT22;6543;48.836;10.092;2024-02-26T09:37:18;9.80;99.90
12957;DHT22;6543;48.836;10.092;2024-02-26T09:39:45;10.00;99.90
12957;DHT22;6543;48.836;10.092;2024-02-26T09:42:13;9.90;99.90
12957;DHT22;6543;48.836;10.092;2024-02-26T09:44:40;10.00;99.90
12957;DHT22;6543;48.836;10.092;2024-02-26T09:47:08;10.30;99.90
12957;DHT22;6543;48.836;10.092;2024-02-26T09:49:38;10.30;99.90
12957;DHT22;6543;48.836;10.092;2024-02-26T09:52:06;10.20;99.90
12957;DHT22;6543;48.836;10.092;2024-02-26T09:54:35;9.80;99.90
12957;DHT22;6543;48.836;10.092;2024-02-26T09:57:03;9.70;99.90
12957;DHT22;6543;48.836;10.092;2024-02-26T09:59:34;9.80;99.90
12957;DHT22;6543;48.836;10.092;2024-02-26T10:02:03;9.90;99.90
12957;DHT22;6543;48.836;10.092;2024-02-26T10:04:31;10.30;99.90
12957;DHT22;6543;48.836;10.092;2024-02-26T10:07:00;9.60;99.90
12957;DHT22;6543;48.836;10.092;2024-02-26T10:09:29;10.00;99.90
12957;DHT22;6543;48.836;10.092;2024-02-26T10:11:57;10.00;99.90
12957;DHT22;6543;48.836;10.092;2024-02-26T10:14:25;10.00;99.90
12957;DHT22;6543;48.836;10.092;2024-02-26T10:16:55;10.30;99.90
12957;DHT22;6543;48.836;10.092;2024-02-26T10:19:28;10.30;99.90
12957;DHT22;6543;48.836;10.092;2024-02-26T10:22:01;10.70;99.90
12957;DHT22;6543;48.836;10.092;2024-02-26T10:24:29;10.90;99.90
12957;DHT22;6543;48.836;10.092;2024-02-26T10:26:57;11.30;99.90
12957;DHT22;6543;48.836;10.092;2024-02-26T10:29:25;11.60;99.90
12957;DHT22;6543;48.836;10.092;2024-02-26T10:31:53;11.00;99.90
12957;DHT22;6543;48.836;10.092;2024-02-26T10:34:20;11.20;99.90
12957;DHT22;6543;48.836;10.092;2024-02-26T10:36:47;11.40;99.90
12957;DHT22;6543;48.836;10.092;2024-02-26T10:39:15;11.30;99.90
12957;DHT22;6543;48.836;10.092;2024-02-26T10:41:43;11.30;99.90
12957;DHT22;6543;48.836;10.092;2024-02-26T10:44:11;11.30;99.90
12957;DHT22;6543;48.836;10.092;2024-02-26T10:46:38;11.40;99.90
12957;DHT22;6543;48.836;10.092;2024-02-26T10:49:13;12.00;99.90
12957;DHT22;6543;48.836;10.092;2024-02-26T10:51:43;11.50;99.90
12957;DHT22;6543;48.836;10.092;2024-02-26T10:54:12;11.60;99.90
12957;DHT22;6543;48.836;10.092;2024-02-26T10:56:42;11.40;99.90
12957;DHT22;6543;48.836;10.092;2024-02-26T10:59:10;11.70;99.90
12957;DHT22;6543;48.836;10.092;2024-02-26T11:01:37;11.60;99.90
12957;DHT22;6543;48.836;10.092;2024-02-26T11:04:07;11.40;99.90
12957;DHT22;6543;48.836;10.092;2024-02-26T11:06:35;11.40;99.90
12957;DHT22;6543;48.836;10.092;2024-02-26T11:09:03;11.00;99.90
12957;DHT22;6543;48.836;10.092;2024-02-26T11:11:31;11.20;99.90
12957;DHT22;6543;48.836;10.092;2024-02-26T11:14:01;11.10;99.90
12957;DHT22;6543;48.836;10.092;2024-02-26T11:16:30;11.30;99.90
12957;DHT22;6543;48.836;10.092;2024-02-26T11:18:57;11.40;99.90
12957;DHT22;6543;48.836;10.092;2024-02-26T11:21:26;11.60;99.90
12957;DHT22;6543;48.836;10.092;2024-02-26T11:24:04;11.90;99.90
12957;DHT22;6543;48.836;10.092;2024-02-26T11:26:33;12.00;99.90
12957;DHT22;6543;48.836;10.092;2024-02-26T11:29:04;12.10;99.90
12957;DHT22;6543;48.836;10.092;2024-02-26T11:31:32;13.50;99.90
12957;DHT22;6543;48.836;10.092;2024-02-26T11:34:00;11.70;99.90
12957;DHT22;6543;48.836;10.092;2024-02-26T11:36:27;11.50;99.90
12957;DHT22;6543;48.836;10.092;2024-02-26T11:38:55;11.50;99.90
12957;DHT22;6543;48.836;10.092;2024-02-26T11:41:23;11.70;99.90
12957;DHT22;6543;48.836;10.092;2024-02-26T11:43:50;12.00;99.90
12957;DHT22;6543;48.836;10.092;2024-02-26T11:46:30;11.50;99.90
12957;DHT22;6543;48.836;10.092;2024-02-26T11:48:59;11.00;99.90
12957;DHT22;6543;48.836;10.092;2024-02-26T11:51:27;11.10;99.90
12957;DHT22;6543;48.836;10.092;2024-02-26T11:53:55;11.10;99.90
12957;DHT22;6543;48.836;10.092;2024-02-26T11:56:24;11.30;99.90
12957;DHT22;6543;48.836;10.092;2024-02-26T11:59:00;11.40;99.90
12957;DHT22;6543;48.836;10.092;2024-02-26T12:01:42;11.40;99.90
12957;DHT22;6543;48.836;10.092;2024-02-26T12:04:17;11.40;99.90
12957;DHT22;6543;48.836;10.092;2024-02-26T12:06:47;11.20;99.90
12957;DHT22;6543;48.836;10.092;2024-02-26T12:09:33;11.30;99.90
12957;DHT22;6543;48.836;10.092;2024-02-26T12:12:01;11.50;99.90
12957;DHT22;6543;48.836;10.092;2024-02-26T12:14:28;12.20;99.90
12957;DHT22;6543;48.836;10.092;2024-02-26T12:16:56;10.10;99.90
12957;DHT22;6543;48.836;10.092;2024-02-26T12:19:24;11.30;99.90
12957;DHT22;6543;48.836;10.092;2024-02-26T12:21:52;11.30;99.90
12957;DHT22;6543;48.836;10.092;2024-02-26T12:24:20;11.70;99.90
12957;DHT22;6543;48.836;10.092;2024-02-26T12:26:47;11.30;99.90
12957;DHT22;6543;48.836;10.092;2024-02-26T12:29:14;11.20;99.90
12957;DHT22;6543;48.836;10.092;2024-02-26T12:31:41;11.30;99.90
12957;DHT22;6543;48.836;10.092;2024-02-26T12:34:10;11.40;99.90
12957;DHT22;6543;48.836;10.092;2024-02-26T12:36:37;11.50;99.90
12957;DHT22;6543;48.836;10.092;2024-02-26T12:39:05;11.50;99.90
12957;DHT22;6543;48.836;10.092;2024-02-26T12:41:32;11.50;99.90
12957;DHT22;6543;48.836;10.092;2024-02-26T12:43:59;11.60;99.90
12957;DHT22;6543;48.836;10.092;2024-02-26T12:46:26;11.70;99.90
12957;DHT22;6543;48.836;10.092;2024-02-26T12:48:55;11.90;99.90
12957;DHT22;6543;48.836;10.092;2024-02-26T12:51:25;11.70;99.90
12957;DHT22;6543;48.836;10.092;2024-02-26T12:53:53;11.90;99.90
12957;DHT22;6543;48.836;10.092;2024-02-26T12:56:21;12.00;99.90
12957;DHT22;6543;48.836;10.092;2024-02-26T12:58:48;12.20;99.90
12957;DHT22;6543;48.836;10.092;2024-02-26T13:01:19;12.20;99.90
12957;DHT22;6543;48.836;10.092;2024-02-26T13:03:46;12.40;99.90
12957;DHT22;6543;48.836;10.092;2024-02-26T13:06:14;12.60;99.90
12957;DHT22;6543;48.836;10.092;2024-02-26T13:08:42;12.50;99.90
12957;DHT22;6543;48.836;10.092;2024-02-26T13:11:09;12.50;99.90
12957;DHT22;6543;48.836;10.092;2024-02-26T13:13:36;12.40;99.90
12957;DHT22;6543;48.836;10.092;2024-02-26T13:16:04;13.50;99.90
12957;DHT22;6543;48.836;10.092;2024-02-26T13:18:33;12.20;99.90
12957;DHT22;6543;48.836;10.092;2024-02-26T13:21:12;12.40;99.90
12957;DHT22;6543;48.836;10.092;2024-02-26T13:23:40;12.40;99.90
12957;DHT22;6543;48.836;10.092;2024-02-26T13:26:11;12.50;99.90
12957;DHT22;6543;48.836;10.092;2024-02-26T13:28:38;12.30;99.90
12957;DHT22;6543;48.836;10.092;2024-02-26T13:31:05;12.30;99.90
12957;DHT22;6543;48.836;10.092;2024-02-26T13:33:33;12.20;99.90
12957;DHT22;6543;48.836;10.092;2024-02-26T13:36:00;12.00;99.90
12957;DHT22;6543;48.836;10.092;2024-02-26T13:38:28;12.10;99.90
12957;DHT22;6543;48.836;10.092;2024-02-26T13:40:55;11.90;99.90
12957;DHT22;6543;48.836;10.092;2024-02-26T13:43:23;11.80;99.90
12957;DHT22;6543;48.836;10.092;2024-02-26T13:45:50;11.80;99.90
12957;DHT22;6543;48.836;10.092;2024-02-26T13:48:18;11.70;99.90
12957;DHT22;6543;48.836;10.092;2024-02-26T13:50:45;11.70;99.90
12957;DHT22;6543;48.836;10.092;2024-02-26T13:53:12;11.60;99.90
12957;DHT22;6543;48.836;10.092;2024-02-26T13:55:40;11.50;99.90
12957;DHT22;6543;48.836;10.092;2024-02-26T13:58:11;11.70;99.90
12957;DHT22;6543;48.836;10.092;2024-02-26T14:00:40;11.70;99.90
12957;DHT22;6543;48.836;10.092;2024-02-26T14:03:07;11.70;99.90
12957;DHT22;6543;48.836;10.092;2024-02-26T14:05:34;11.50;99.90
12957;DHT22;6543;48.836;10.092;2024-02-26T14:08:02;11.60;99.90
12957;DHT22;6543;48.836;10.092;2024-02-26T14:10:29;11.60;99.90
12957;DHT22;6543;48.836;10.092;2024-02-26T14:12:57;11.60;99.90
12957;DHT22;6543;48.836;10.092;2024-02-26T14:15:24;11.60;99.90
12957;DHT22;6543;48.836;10.092;2024-02-26T14:17:52;11.50;99.90
12957;DHT22;6543;48.836;10.092;2024-02-26T14:20:22;11.60;99.90
12957;DHT22;6543;48.836;10.092;2024-02-26T14:22:49;11.70;99.90
12957;DHT22;6543;48.836;10.092;2024-02-26T14:25:17;11.60;99.90
12957;DHT22;6543;48.836;10.092;2024-02-26T14:27:44;11.60;99.90
12957;DHT22;6543;48.836;10.092;2024-02-26T14:30:12;11.50;99.90
12957;DHT22;6543;48.836;10.092;2024-02-26T14:32:39;11.40;99.90
12957;DHT22;6543;48.836;10.092;2024-02-26T14:35:08;11.60;99.90
12957;DHT22;6543;48.836;10.092;2024-02-26T14:37:35;11.60;99.90
12957;DHT22;6543;48.836;10.092;2024-02-26T14:40:03;12.60;99.90
12957;DHT22;6543;48.836;10.092;2024-02-26T14:42:30;11.90;99.90
12957;DHT22;6543;48.836;10.092;2024-02-26T14:44:56;11.90;99.90
12957;DHT22;6543;48.836;10.092;2024-02-26T14:47:23;11.90;99.90
12957;DHT22;6543;48.836;10.092;2024-02-26T14:49:50;12.10;99.90
12957;DHT22;6543;48.836;10.092;2024-02-26T14:52:18;12.10;99.90
12957;DHT22;6543;48.836;10.092;2024-02-26T14:54:45;12.10;99.90
12957;DHT22;6543;48.836;10.092;2024-02-26T14:57:12;12.00;99.90
12957;DHT22;6543;48.836;10.092;2024-02-26T14:59:40;11.90;99.90
12957;DHT22;6543;48.836;10.092;2024-02-26T15:02:07;11.90;99.90
12957;DHT22;6543;48.836;10.092;2024-02-26T15:04:38;11.70;99.90
12957;DHT22;6543;48.836;10.092;2024-02-26T15:07:05;11.70;99.90
12957;DHT22;6543;48.836;10.092;2024-02-26T15:09:33;11.60;99.90
12957;DHT22;6543;48.836;10.092;2024-02-26T15:12:01;11.60;99.90
12957;DHT22;6543;48.836;10.092;2024-02-26T15:14:28;11.60;99.90
12957;DHT22;6543;48.836;10.092;2024-02-26T15:16:55;11.60;99.90
12957;DHT22;6543;48.836;10.092;2024-02-26T15:19:21;11.60;99.90
12957;DHT22;6543;48.836;10.092;2024-02-26T15:21:49;11.70;99.90
12957;DHT22;6543;48.836;10.092;2024-02-26T15:24:16;11.80;99.90
12957;DHT22;6543;48.836;10.092;2024-02-26T15:26:44;11.60;99.90
12957;DHT22;6543;48.836;10.092;2024-02-26T15:29:12;11.50;99.90
12957;DHT22;6543;48.836;10.092;2024-02-26T15:31:39;11.70;99.90
12957;DHT22;6543;48.836;10.092;2024-02-26T15:34:06;11.90;99.90
12957;DHT22;6543;48.836;10.092;2024-02-26T15:36:33;13.10;99.90
12957;DHT22;6543;48.836;10.092;2024-02-26T15:39:01;11.60;99.90
12957;DHT22;6543;48.836;10.092;2024-02-26T15:41:28;11.60;99.90
12957;DHT22;6543;48.836;10.092;2024-02-26T15:43:56;11.50;99.90